CheckWX is a tool to help pilots better visualize weather data.  It is not intended as a substitute for an official pre-flight weather briefing.

18:24:47 UTC

KPHL TAF
Philadelphia International Airport
Philadelphia, Pennsylvania, USA
KPHL 201726Z 2018/2124 24010KT P6SM SCT250 FM210000 24005KT P6SM SCT250 FM210900 VRB03KT P6SM SCT250 FM211200 22007KT P6SM SCT250

Sep-20@
18:00 UTC

Sep-20 @ 18:00 UTC

Sep-21@
00:00 UTC

Sep-21 @ 00:00 UTC

KPHL 201726Z 2018/2124 24010KT P6SM SCT250
Wind
  • 240° at 10 KTS
Cloud Levels
  • Scattered at 25,000' AGL

Sep-21@
00:00 UTC

Sep-21 @ 00:00 UTC

Sep-21@
09:00 UTC

Sep-21 @ 09:00 UTC

FM210000 24005KT P6SM SCT250

From

From Standard forecast or significant change

Wind
  • 240° at 5 KTS
Cloud Levels
  • Scattered at 25,000' AGL

Sep-21@
09:00 UTC

Sep-21 @ 09:00 UTC

Sep-21@
12:00 UTC

Sep-21 @ 12:00 UTC

FM210900 VRB03KT P6SM SCT250

From

From Standard forecast or significant change

Wind
  • Variable at 3 KTS
Cloud Levels
  • Scattered at 25,000' AGL

Sep-21@
12:00 UTC

Sep-21 @ 12:00 UTC

Sep-22@
00:00 UTC

Sep-22 @ 00:00 UTC

FM211200 22007KT P6SM SCT250

From

From Standard forecast or significant change

Wind
  • 220° at 7 KTS
Cloud Levels
  • Scattered at 25,000' AGL